sensor_id;sensor_type;location;lat;lon;timestamp;temperature;humidity
810;DHT22;387;48.772;9.186;2023-11-21T00:01:01;9.00;84.70
810;DHT22;387;48.772;9.186;2023-11-21T00:03:29;9.00;84.60
810;DHT22;387;48.772;9.186;2023-11-21T00:05:55;9.00;84.40
810;DHT22;387;48.772;9.186;2023-11-21T00:08:20;9.10;84.40
810;DHT22;387;48.772;9.186;2023-11-21T00:10:46;9.00;84.40
810;DHT22;387;48.772;9.186;2023-11-21T00:13:11;9.10;84.70
810;DHT22;387;48.772;9.186;2023-11-21T00:15:37;9.10;85.00
810;DHT22;387;48.772;9.186;2023-11-21T00:18:03;9.10;85.20
810;DHT22;387;48.772;9.186;2023-11-21T00:20:29;9.00;85.60
810;DHT22;387;48.772;9.186;2023-11-21T00:22:54;9.00;85.90
810;DHT22;387;48.772;9.186;2023-11-21T00:25:20;9.00;86.00
810;DHT22;387;48.772;9.186;2023-11-21T00:27:45;9.00;86.00
810;DHT22;387;48.772;9.186;2023-11-21T00:30:11;9.00;86.20
810;DHT22;387;48.772;9.186;2023-11-21T00:32:37;9.00;86.30
810;DHT22;387;48.772;9.186;2023-11-21T00:35:03;9.10;86.30
810;DHT22;387;48.772;9.186;2023-11-21T00:37:29;9.10;86.30
810;DHT22;387;48.772;9.186;2023-11-21T00:39:57;9.10;86.50
810;DHT22;387;48.772;9.186;2023-11-21T00:42:23;9.20;86.30
810;DHT22;387;48.772;9.186;2023-11-21T00:44:49;9.10;85.90
810;DHT22;387;48.772;9.186;2023-11-21T00:47:14;9.20;85.90
810;DHT22;387;48.772;9.186;2023-11-21T00:49:40;9.20;85.30
810;DHT22;387;48.772;9.186;2023-11-21T00:52:06;9.30;85.50
810;DHT22;387;48.772;9.186;2023-11-21T00:54:32;9.20;85.50
810;DHT22;387;48.772;9.186;2023-11-21T00:56:59;9.20;85.70
810;DHT22;387;48.772;9.186;2023-11-21T00:59:24;9.20;85.70
810;DHT22;387;48.772;9.186;2023-11-21T01:01:50;9.10;85.90
810;DHT22;387;48.772;9.186;2023-11-21T01:04:15;9.10;85.60
810;DHT22;387;48.772;9.186;2023-11-21T01:06:41;9.10;85.60
810;DHT22;387;48.772;9.186;2023-11-21T01:09:07;9.00;85.60
810;DHT22;387;48.772;9.186;2023-11-21T01:11:36;9.00;85.50
810;DHT22;387;48.772;9.186;2023-11-21T01:14:02;9.00;85.60
810;DHT22;387;48.772;9.186;2023-11-21T01:16:28;9.00;85.70
810;DHT22;387;48.772;9.186;2023-11-21T01:18:54;9.00;85.90
810;DHT22;387;48.772;9.186;2023-11-21T01:21:20;9.00;86.20
810;DHT22;387;48.772;9.186;2023-11-21T01:23:45;9.00;86.20
810;DHT22;387;48.772;9.186;2023-11-21T01:26:13;9.00;86.20
810;DHT22;387;48.772;9.186;2023-11-21T01:28:38;8.90;86.60
810;DHT22;387;48.772;9.186;2023-11-21T01:31:04;8.90;86.80
810;DHT22;387;48.772;9.186;2023-11-21T01:33:30;8.90;86.90
810;DHT22;387;48.772;9.186;2023-11-21T01:35:55;8.90;86.80
810;DHT22;387;48.772;9.186;2023-11-21T01:38:21;8.90;86.80
810;DHT22;387;48.772;9.186;2023-11-21T01:40:47;8.90;86.60
810;DHT22;387;48.772;9.186;2023-11-21T01:43:13;9.00;86.80
810;DHT22;387;48.772;9.186;2023-11-21T01:45:39;9.00;86.50
810;DHT22;387;48.772;9.186;2023-11-21T01:48:05;9.00;86.50
810;DHT22;387;48.772;9.186;2023-11-21T01:50:32;9.00;86.50
810;DHT22;387;48.772;9.186;2023-11-21T01:52:58;9.00;86.30
810;DHT22;387;48.772;9.186;2023-11-21T01:55:25;9.00;86.30
810;DHT22;387;48.772;9.186;2023-11-21T01:57:52;9.00;86.30
810;DHT22;387;48.772;9.186;2023-11-21T02:00:18;9.10;86.20
810;DHT22;387;48.772;9.186;2023-11-21T02:02:48;9.10;86.20
810;DHT22;387;48.772;9.186;2023-11-21T02:05:18;9.10;85.70
810;DHT22;387;48.772;9.186;2023-11-21T02:07:45;9.00;85.90
810;DHT22;387;48.772;9.186;2023-11-21T02:10:13;9.00;85.70
810;DHT22;387;48.772;9.186;2023-11-21T02:12:41;9.00;85.60
810;DHT22;387;48.772;9.186;2023-11-21T02:15:08;9.00;85.70
810;DHT22;387;48.772;9.186;2023-11-21T02:17:43;9.00;85.70
810;DHT22;387;48.772;9.186;2023-11-21T02:20:11;9.00;85.70
810;DHT22;387;48.772;9.186;2023-11-21T02:22:41;9.00;85.60
810;DHT22;387;48.772;9.186;2023-11-21T02:25:08;9.00;85.60
810;DHT22;387;48.772;9.186;2023-11-21T02:27:33;9.00;85.30
810;DHT22;387;48.772;9.186;2023-11-21T02:29:59;9.00;85.30
810;DHT22;387;48.772;9.186;2023-11-21T02:32:26;9.00;85.30
810;DHT22;387;48.772;9.186;2023-11-21T02:34:51;9.00;85.00
810;DHT22;387;48.772;9.186;2023-11-21T02:37:17;9.00;84.90
810;DHT22;387;48.772;9.186;2023-11-21T02:39:43;9.00;85.00
810;DHT22;387;48.772;9.186;2023-11-21T02:45:31;9.00;84.90
810;DHT22;387;48.772;9.186;2023-11-21T02:47:57;9.00;84.90
810;DHT22;387;48.772;9.186;2023-11-21T02:50:23;9.00;85.00
810;DHT22;387;48.772;9.186;2023-11-21T02:52:49;9.00;85.00
810;DHT22;387;48.772;9.186;2023-11-21T02:55:15;9.00;85.00
810;DHT22;387;48.772;9.186;2023-11-21T02:57:40;8.90;85.30
810;DHT22;387;48.772;9.186;2023-11-21T03:00:06;8.90;85.50
810;DHT22;387;48.772;9.186;2023-11-21T03:02:33;8.90;85.50
810;DHT22;387;48.772;9.186;2023-11-21T03:05:02;8.80;85.50
810;DHT22;387;48.772;9.186;2023-11-21T03:07:27;8.80;85.50
810;DHT22;387;48.772;9.186;2023-11-21T03:09:53;8.80;85.50
810;DHT22;387;48.772;9.186;2023-11-21T03:12:19;8.80;85.60
810;DHT22;387;48.772;9.186;2023-11-21T03:14:45;8.80;85.50
810;DHT22;387;48.772;9.186;2023-11-21T03:17:10;8.80;85.50
810;DHT22;387;48.772;9.186;2023-11-21T03:19:37;8.80;85.60
810;DHT22;387;48.772;9.186;2023-11-21T03:22:02;8.80;85.70
810;DHT22;387;48.772;9.186;2023-11-21T03:24:29;8.80;85.70
810;DHT22;387;48.772;9.186;2023-11-21T03:26:55;8.80;85.70
810;DHT22;387;48.772;9.186;2023-11-21T03:29:20;8.80;85.60
810;DHT22;387;48.772;9.186;2023-11-21T03:31:46;8.80;85.70
810;DHT22;387;48.772;9.186;2023-11-21T03:34:19;8.80;85.70
810;DHT22;387;48.772;9.186;2023-11-21T03:36:45;8.90;85.60
810;DHT22;387;48.772;9.186;2023-11-21T03:39:11;8.90;85.60
810;DHT22;387;48.772;9.186;2023-11-21T03:41:37;8.90;85.50
810;DHT22;387;48.772;9.186;2023-11-21T03:44:03;8.90;85.60
810;DHT22;387;48.772;9.186;2023-11-21T03:46:28;8.80;85.60
810;DHT22;387;48.772;9.186;2023-11-21T03:48:54;8.80;85.70
810;DHT22;387;48.772;9.186;2023-11-21T03:51:21;8.80;85.70
810;DHT22;387;48.772;9.186;2023-11-21T03:53:47;8.80;85.90
810;DHT22;387;48.772;9.186;2023-11-21T03:56:13;8.80;85.90
810;DHT22;387;48.772;9.186;2023-11-21T03:58:39;8.90;85.90
810;DHT22;387;48.772;9.186;2023-11-21T04:01:05;8.90;85.60
810;DHT22;387;48.772;9.186;2023-11-21T04:03:30;8.90;85.50
810;DHT22;387;48.772;9.186;2023-11-21T04:05:56;8.90;85.50
810;DHT22;387;48.772;9.186;2023-11-21T04:08:22;8.90;85.60
810;DHT22;387;48.772;9.186;2023-11-21T04:10:48;8.80;86.30
810;DHT22;387;48.772;9.186;2023-11-21T04:13:14;8.60;87.00
810;DHT22;387;48.772;9.186;2023-11-21T04:15:39;8.60;87.80
810;DHT22;387;48.772;9.186;2023-11-21T04:18:05;8.50;88.10
810;DHT22;387;48.772;9.186;2023-11-21T04:20:31;8.50;88.60
810;DHT22;387;48.772;9.186;2023-11-21T04:22:56;8.50;88.70
810;DHT22;387;48.772;9.186;2023-11-21T04:25:22;8.40;88.90
810;DHT22;387;48.772;9.186;2023-11-21T04:27:48;8.40;89.20
810;DHT22;387;48.772;9.186;2023-11-21T04:30:15;8.40;89.30
810;DHT22;387;48.772;9.186;2023-11-21T04:32:40;8.40;89.50
810;DHT22;387;48.772;9.186;2023-11-21T04:35:07;8.40;89.60
810;DHT22;387;48.772;9.186;2023-11-21T04:37:34;8.40;89.70
810;DHT22;387;48.772;9.186;2023-11-21T04:39:59;8.30;89.60
810;DHT22;387;48.772;9.186;2023-11-21T04:42:25;8.20;89.60
810;DHT22;387;48.772;9.186;2023-11-21T04:44:50;8.30;89.70
810;DHT22;387;48.772;9.186;2023-11-21T04:47:18;8.30;89.60
810;DHT22;387;48.772;9.186;2023-11-21T04:49:46;8.20;89.30
810;DHT22;387;48.772;9.186;2023-11-21T04:52:12;8.30;89.30
810;DHT22;387;48.772;9.186;2023-11-21T04:54:38;8.20;89.00
810;DHT22;387;48.772;9.186;2023-11-21T04:57:05;8.20;88.90
810;DHT22;387;48.772;9.186;2023-11-21T04:59:33;8.20;88.90
810;DHT22;387;48.772;9.186;2023-11-21T05:01:58;8.20;88.70
810;DHT22;387;48.772;9.186;2023-11-21T05:04:25;8.20;88.70
810;DHT22;387;48.772;9.186;2023-11-21T05:06:51;8.30;88.70
810;DHT22;387;48.772;9.186;2023-11-21T05:09:16;8.40;88.60
810;DHT22;387;48.772;9.186;2023-11-21T05:11:43;8.40;88.60
810;DHT22;387;48.772;9.186;2023-11-21T05:14:09;8.40;88.60
810;DHT22;387;48.772;9.186;2023-11-21T05:16:35;8.50;88.10
810;DHT22;387;48.772;9.186;2023-11-21T05:19:01;8.40;87.80
810;DHT22;387;48.772;9.186;2023-11-21T05:21:27;8.50;87.80
810;DHT22;387;48.772;9.186;2023-11-21T05:23:53;8.50;87.70
810;DHT22;387;48.772;9.186;2023-11-21T05:26:18;8.40;87.70
810;DHT22;387;48.772;9.186;2023-11-21T05:28:44;8.50;88.00
810;DHT22;387;48.772;9.186;2023-11-21T05:31:09;8.50;87.80
810;DHT22;387;48.772;9.186;2023-11-21T05:33:36;8.50;87.70
810;DHT22;387;48.772;9.186;2023-11-21T05:36:02;8.60;88.00
810;DHT22;387;48.772;9.186;2023-11-21T05:38:27;8.60;87.60
810;DHT22;387;48.772;9.186;2023-11-21T05:40:53;8.50;87.60
810;DHT22;387;48.772;9.186;2023-11-21T05:43:19;8.50;87.70
810;DHT22;387;48.772;9.186;2023-11-21T05:45:45;8.60;87.60
810;DHT22;387;48.772;9.186;2023-11-21T05:48:10;8.60;87.60
810;DHT22;387;48.772;9.186;2023-11-21T05:50:36;8.70;87.30
810;DHT22;387;48.772;9.186;2023-11-21T05:53:03;8.60;86.90
810;DHT22;387;48.772;9.186;2023-11-21T05:55:30;8.60;87.10
810;DHT22;387;48.772;9.186;2023-11-21T05:57:56;8.60;87.10
810;DHT22;387;48.772;9.186;2023-11-21T06:00:22;8.60;87.10
810;DHT22;387;48.772;9.186;2023-11-21T06:02:48;8.60;87.10
810;DHT22;387;48.772;9.186;2023-11-21T06:05:18;8.60;87.30
810;DHT22;387;48.772;9.186;2023-11-21T06:07:44;8.60;87.30
810;DHT22;387;48.772;9.186;2023-11-21T06:10:11;8.60;87.40
810;DHT22;387;48.772;9.186;2023-11-21T06:12:40;8.50;87.40
810;DHT22;387;48.772;9.186;2023-11-21T06:15:09;8.50;87.60
810;DHT22;387;48.772;9.186;2023-11-21T06:17:35;8.60;87.70
810;DHT22;387;48.772;9.186;2023-11-21T06:20:05;8.60;87.80
810;DHT22;387;48.772;9.186;2023-11-21T06:22:38;8.60;87.80
810;DHT22;387;48.772;9.186;2023-11-21T06:25:05;8.70;88.00
810;DHT22;387;48.772;9.186;2023-11-21T06:27:37;8.70;88.00
810;DHT22;387;48.772;9.186;2023-11-21T06:30:03;8.80;87.30
810;DHT22;387;48.772;9.186;2023-11-21T06:32:30;8.80;87.30
810;DHT22;387;48.772;9.186;2023-11-21T06:34:56;8.70;87.30
810;DHT22;387;48.772;9.186;2023-11-21T06:37:26;8.70;87.00
810;DHT22;387;48.772;9.186;2023-11-21T06:39:52;8.70;87.10
810;DHT22;387;48.772;9.186;2023-11-21T06:42:18;8.70;87.30
810;DHT22;387;48.772;9.186;2023-11-21T06:44:45;8.70;87.30
810;DHT22;387;48.772;9.186;2023-11-21T06:47:11;8.60;87.30
810;DHT22;387;48.772;9.186;2023-11-21T06:49:36;8.70;87.40
810;DHT22;387;48.772;9.186;2023-11-21T06:52:04;8.60;87.40
810;DHT22;387;48.772;9.186;2023-11-21T06:54:31;8.80;87.70
810;DHT22;387;48.772;9.186;2023-11-21T06:56:57;8.80;87.70
810;DHT22;387;48.772;9.186;2023-11-21T06:59:23;8.80;87.70
810;DHT22;387;48.772;9.186;2023-11-21T07:01:49;8.90;87.60
810;DHT22;387;48.772;9.186;2023-11-21T07:04:15;9.00;87.40
810;DHT22;387;48.772;9.186;2023-11-21T07:06:40;9.00;87.00
810;DHT22;387;48.772;9.186;2023-11-21T07:09:06;8.90;86.80
810;DHT22;387;48.772;9.186;2023-11-21T07:11:34;8.90;86.50
810;DHT22;387;48.772;9.186;2023-11-21T07:13:59;8.80;86.60
810;DHT22;387;48.772;9.186;2023-11-21T07:16:27;8.90;86.80
810;DHT22;387;48.772;9.186;2023-11-21T07:18:55;8.90;86.80
810;DHT22;387;48.772;9.186;2023-11-21T07:21:21;8.90;86.90
810;DHT22;387;48.772;9.186;2023-11-21T07:23:47;8.90;86.80
810;DHT22;387;48.772;9.186;2023-11-21T07:26:12;9.00;86.90
810;DHT22;387;48.772;9.186;2023-11-21T07:28:38;9.00;86.50
810;DHT22;387;48.772;9.186;2023-11-21T07:31:03;8.90;86.50
810;DHT22;387;48.772;9.186;2023-11-21T07:33:29;8.90;86.50
810;DHT22;387;48.772;9.186;2023-11-21T07:35:55;9.00;86.60
810;DHT22;387;48.772;9.186;2023-11-21T07:38:20;9.00;86.50
810;DHT22;387;48.772;9.186;2023-11-21T07:40:46;9.00;86.50
810;DHT22;387;48.772;9.186;2023-11-21T07:43:11;8.90;86.20
810;DHT22;387;48.772;9.186;2023-11-21T07:45:37;9.00;86.30
810;DHT22;387;48.772;9.186;2023-11-21T07:48:03;9.00;86.50
810;DHT22;387;48.772;9.186;2023-11-21T07:50:30;9.00;86.50
810;DHT22;387;48.772;9.186;2023-11-21T07:52:57;9.10;86.20
810;DHT22;387;48.772;9.186;2023-11-21T07:55:23;9.20;86.30
810;DHT22;387;48.772;9.186;2023-11-21T07:57:50;9.10;86.20
810;DHT22;387;48.772;9.186;2023-11-21T08:00:16;9.00;86.00
810;DHT22;387;48.772;9.186;2023-11-21T08:02:42;9.10;86.30
810;DHT22;387;48.772;9.186;2023-11-21T08:05:08;9.10;86.60
810;DHT22;387;48.772;9.186;2023-11-21T08:07:34;9.20;86.80
810;DHT22;387;48.772;9.186;2023-11-21T08:10:00;9.20;86.80
810;DHT22;387;48.772;9.186;2023-11-21T08:12:25;9.20;86.80
810;DHT22;387;48.772;9.186;2023-11-21T08:14:53;9.30;86.20
810;DHT22;387;48.772;9.186;2023-11-21T08:17:18;9.20;85.90
810;DHT22;387;48.772;9.186;2023-11-21T08:19:45;9.30;86.00
810;DHT22;387;48.772;9.186;2023-11-21T08:22:15;9.30;85.90
810;DHT22;387;48.772;9.186;2023-11-21T08:24:41;9.30;85.50
810;DHT22;387;48.772;9.186;2023-11-21T08:27:07;9.30;85.60
810;DHT22;387;48.772;9.186;2023-11-21T08:29:32;9.30;85.50
810;DHT22;387;48.772;9.186;2023-11-21T08:31:58;9.30;85.50
810;DHT22;387;48.772;9.186;2023-11-21T08:34:25;9.30;85.70
810;DHT22;387;48.772;9.186;2023-11-21T08:36:50;9.30;85.70
810;DHT22;387;48.772;9.186;2023-11-21T08:39:16;9.40;85.70
810;DHT22;387;48.772;9.186;2023-11-21T08:41:44;9.50;85.60
810;DHT22;387;48.772;9.186;2023-11-21T08:44:10;9.50;85.30
810;DHT22;387;48.772;9.186;2023-11-21T08:46:36;9.60;85.50
810;DHT22;387;48.772;9.186;2023-11-21T08:49:03;9.60;84.90
810;DHT22;387;48.772;9.186;2023-11-21T08:51:29;9.70;84.70
810;DHT22;387;48.772;9.186;2023-11-21T08:53:54;9.70;84.30
810;DHT22;387;48.772;9.186;2023-11-21T08:56:24;9.70;84.30
810;DHT22;387;48.772;9.186;2023-11-21T08:58:50;9.70;84.40
810;DHT22;387;48.772;9.186;2023-11-21T09:01:16;9.90;84.70
810;DHT22;387;48.772;9.186;2023-11-21T09:03:44;9.90;84.10
810;DHT22;387;48.772;9.186;2023-11-21T09:06:09;10.00;84.00
810;DHT22;387;48.772;9.186;2023-11-21T09:08:35;10.10;83.10
810;DHT22;387;48.772;9.186;2023-11-21T09:11:01;10.20;82.80
810;DHT22;387;48.772;9.186;2023-11-21T09:13:26;10.20;82.50
810;DHT22;387;48.772;9.186;2023-11-21T09:15:52;10.10;82.50
810;DHT22;387;48.772;9.186;2023-11-21T09:18:18;9.90;83.00
810;DHT22;387;48.772;9.186;2023-11-21T09:20:44;10.00;83.30
810;DHT22;387;48.772;9.186;2023-11-21T09:23:10;9.90;83.30
810;DHT22;387;48.772;9.186;2023-11-21T09:25:35;10.10;83.60
810;DHT22;387;48.772;9.186;2023-11-21T09:28:03;10.10;83.40
810;DHT22;387;48.772;9.186;2023-11-21T09:30:33;10.30;83.70
810;DHT22;387;48.772;9.186;2023-11-21T09:32:59;10.50;83.10
810;DHT22;387;48.772;9.186;2023-11-21T09:35:26;10.60;82.20
810;DHT22;387;48.772;9.186;2023-11-21T09:37:53;10.60;82.10
810;DHT22;387;48.772;9.186;2023-11-21T09:40:21;10.60;81.70
810;DHT22;387;48.772;9.186;2023-11-21T09:42:57;10.50;81.80
810;DHT22;387;48.772;9.186;2023-11-21T09:45:27;10.50;81.90
810;DHT22;387;48.772;9.186;2023-11-21T09:47:55;10.60;81.50
810;DHT22;387;48.772;9.186;2023-11-21T09:50:21;10.40;81.40
810;DHT22;387;48.772;9.186;2023-11-21T09:53:21;10.40;81.70
810;DHT22;387;48.772;9.186;2023-11-21T09:58:28;10.40;82.70
810;DHT22;387;48.772;9.186;2023-11-21T10:00:55;10.30;82.80
810;DHT22;387;48.772;9.186;2023-11-21T10:03:23;10.20;82.70
810;DHT22;387;48.772;9.186;2023-11-21T10:05:50;10.30;83.10
810;DHT22;387;48.772;9.186;2023-11-21T10:08:16;10.40;83.10
810;DHT22;387;48.772;9.186;2023-11-21T10:10:46;10.50;83.10
810;DHT22;387;48.772;9.186;2023-11-21T10:13:14;10.60;82.80
810;DHT22;387;48.772;9.186;2023-11-21T10:15:42;10.60;82.70
810;DHT22;387;48.772;9.186;2023-11-21T10:18:14;10.40;82.80
810;DHT22;387;48.772;9.186;2023-11-21T10:20:41;10.30;83.30
810;DHT22;387;48.772;9.186;2023-11-21T10:23:07;10.20;83.60
810;DHT22;387;48.772;9.186;2023-11-21T10:25:36;10.30;84.10
810;DHT22;387;48.772;9.186;2023-11-21T10:28:03;10.00;84.10
810;DHT22;387;48.772;9.186;2023-11-21T10:30:34;10.00;85.00
810;DHT22;387;48.772;9.186;2023-11-21T10:33:03;10.00;85.20
810;DHT22;387;48.772;9.186;2023-11-21T10:35:47;10.00;85.20
810;DHT22;387;48.772;9.186;2023-11-21T10:38:19;9.80;84.90
810;DHT22;387;48.772;9.186;2023-11-21T10:40:46;9.70;84.70
810;DHT22;387;48.772;9.186;2023-11-21T10:43:13;9.60;84.40
810;DHT22;387;48.772;9.186;2023-11-21T10:45:40;9.70;84.70
810;DHT22;387;48.772;9.186;2023-11-21T10:48:07;9.80;84.90
810;DHT22;387;48.772;9.186;2023-11-21T10:50:34;9.80;84.70
810;DHT22;387;48.772;9.186;2023-11-21T10:53:02;9.90;84.90
810;DHT22;387;48.772;9.186;2023-11-21T10:55:29;10.00;84.60
810;DHT22;387;48.772;9.186;2023-11-21T10:58:03;10.10;84.40
810;DHT22;387;48.772;9.186;2023-11-21T11:00:31;10.10;84.40
810;DHT22;387;48.772;9.186;2023-11-21T11:02:56;10.20;84.40
810;DHT22;387;48.772;9.186;2023-11-21T11:05:27;10.40;84.00
810;DHT22;387;48.772;9.186;2023-11-21T11:08:08;10.40;83.00
810;DHT22;387;48.772;9.186;2023-11-21T11:10:37;10.50;83.00
810;DHT22;387;48.772;9.186;2023-11-21T11:13:04;10.50;83.30
810;DHT22;387;48.772;9.186;2023-11-21T11:15:32;10.70;83.70
810;DHT22;387;48.772;9.186;2023-11-21T11:17:59;10.90;83.10
810;DHT22;387;48.772;9.186;2023-11-21T11:20:29;11.00;82.80
810;DHT22;387;48.772;9.186;2023-11-21T11:28:47;11.00;80.60
810;DHT22;387;48.772;9.186;2023-11-21T11:31:37;11.00;81.20
810;DHT22;387;48.772;9.186;2023-11-21T11:34:31;10.70;81.20
810;DHT22;387;48.772;9.186;2023-11-21T11:37:07;10.70;81.70
810;DHT22;387;48.772;9.186;2023-11-21T11:39:38;10.70;82.10
810;DHT22;387;48.772;9.186;2023-11-21T11:42:13;10.80;82.40
810;DHT22;387;48.772;9.186;2023-11-21T11:47:15;10.80;82.80
810;DHT22;387;48.772;9.186;2023-11-21T11:50:02;10.80;82.70
810;DHT22;387;48.772;9.186;2023-11-21T11:52:52;10.80;82.70
810;DHT22;387;48.772;9.186;2023-11-21T11:55:19;10.80;82.50
810;DHT22;387;48.772;9.186;2023-11-21T11:57:47;10.90;82.40
810;DHT22;387;48.772;9.186;2023-11-21T12:00:34;11.00;82.40
810;DHT22;387;48.772;9.186;2023-11-21T12:03:05;10.90;81.70
810;DHT22;387;48.772;9.186;2023-11-21T12:05:34;11.00;81.50
810;DHT22;387;48.772;9.186;2023-11-21T12:08:08;11.10;81.40
810;DHT22;387;48.772;9.186;2023-11-21T12:10:36;11.00;80.90
810;DHT22;387;48.772;9.186;2023-11-21T12:13:05;10.90;81.40
810;DHT22;387;48.772;9.186;2023-11-21T12:15:33;10.90;81.50
810;DHT22;387;48.772;9.186;2023-11-21T12:17:58;10.80;81.90
810;DHT22;387;48.772;9.186;2023-11-21T12:20:25;10.70;82.10
810;DHT22;387;48.772;9.186;2023-11-21T12:22:56;10.70;82.20
810;DHT22;387;48.772;9.186;2023-11-21T12:25:28;10.70;82.50
810;DHT22;387;48.772;9.186;2023-11-21T12:27:55;10.70;83.40
810;DHT22;387;48.772;9.186;2023-11-21T12:30:23;10.60;83.60
810;DHT22;387;48.772;9.186;2023-11-21T12:32:52;10.60;84.00
810;DHT22;387;48.772;9.186;2023-11-21T12:35:25;10.60;83.70
810;DHT22;387;48.772;9.186;2023-11-21T12:37:52;10.80;83.80
810;DHT22;387;48.772;9.186;2023-11-21T12:40:19;10.90;83.80
810;DHT22;387;48.772;9.186;2023-11-21T12:42:46;10.90;83.30
810;DHT22;387;48.772;9.186;2023-11-21T12:47:46;11.00;83.10
810;DHT22;387;48.772;9.186;2023-11-21T12:50:12;11.00;83.10
810;DHT22;387;48.772;9.186;2023-11-21T12:52:45;11.10;82.80
810;DHT22;387;48.772;9.186;2023-11-21T12:55:19;11.10;82.70
810;DHT22;387;48.772;9.186;2023-11-21T12:57:49;11.10;82.40
810;DHT22;387;48.772;9.186;2023-11-21T13:00:18;10.80;81.70
810;DHT22;387;48.772;9.186;2023-11-21T13:02:57;10.60;82.10
810;DHT22;387;48.772;9.186;2023-11-21T13:05:28;10.40;82.80
810;DHT22;387;48.772;9.186;2023-11-21T13:07:55;10.50;83.30
810;DHT22;387;48.772;9.186;2023-11-21T13:10:24;10.80;83.60
810;DHT22;387;48.772;9.186;2023-11-21T13:12:57;10.80;83.30
810;DHT22;387;48.772;9.186;2023-11-21T13:15:24;10.90;83.10
810;DHT22;387;48.772;9.186;2023-11-21T13:17:50;11.10;82.50
810;DHT22;387;48.772;9.186;2023-11-21T13:20:16;11.10;82.10
810;DHT22;387;48.772;9.186;2023-11-21T13:22:57;10.90;81.70
810;DHT22;387;48.772;9.186;2023-11-21T13:25:24;10.80;82.10
810;DHT22;387;48.772;9.186;2023-11-21T13:27:55;10.40;81.50
810;DHT22;387;48.772;9.186;2023-11-21T13:30:22;10.10;82.10
810;DHT22;387;48.772;9.186;2023-11-21T13:32:52;10.10;83.30
810;DHT22;387;48.772;9.186;2023-11-21T13:35:19;9.90;84.10
810;DHT22;387;48.772;9.186;2023-11-21T13:37:56;9.80;84.90
810;DHT22;387;48.772;9.186;2023-11-21T13:40:23;9.70;86.20
810;DHT22;387;48.772;9.186;2023-11-21T13:42:55;9.60;87.00
810;DHT22;387;48.772;9.186;2023-11-21T13:45:25;9.70;87.40
810;DHT22;387;48.772;9.186;2023-11-21T13:47:52;9.70;87.60
810;DHT22;387;48.772;9.186;2023-11-21T13:50:23;9.50;87.70
810;DHT22;387;48.772;9.186;2023-11-21T13:52:52;9.50;88.10
810;DHT22;387;48.772;9.186;2023-11-21T13:55:19;9.60;88.40
810;DHT22;387;48.772;9.186;2023-11-21T13:57:44;9.60;88.40
810;DHT22;387;48.772;9.186;2023-11-21T14:00:18;9.60;88.30
810;DHT22;387;48.772;9.186;2023-11-21T14:03:04;9.60;88.30
810;DHT22;387;48.772;9.186;2023-11-21T14:05:34;9.40;88.10
810;DHT22;387;48.772;9.186;2023-11-21T14:08:00;9.40;88.30
810;DHT22;387;48.772;9.186;2023-11-21T14:10:33;9.40;88.60
810;DHT22;387;48.772;9.186;2023-11-21T14:13:06;9.50;88.40
810;DHT22;387;48.772;9.186;2023-11-21T14:15:32;9.60;88.40
810;DHT22;387;48.772;9.186;2023-11-21T14:18:02;9.60;88.40
810;DHT22;387;48.772;9.186;2023-11-21T14:20:33;9.60;88.40
810;DHT22;387;48.772;9.186;2023-11-21T14:23:06;9.60;88.30
810;DHT22;387;48.772;9.186;2023-11-21T14:25:34;9.70;88.40
810;DHT22;387;48.772;9.186;2023-11-21T14:28:00;9.60;88.30
810;DHT22;387;48.772;9.186;2023-11-21T14:30:26;9.60;88.30
810;DHT22;387;48.772;9.186;2023-11-21T14:32:52;9.60;88.30
810;DHT22;387;48.772;9.186;2023-11-21T14:35:18;9.70;88.40
810;DHT22;387;48.772;9.186;2023-11-21T14:37:44;9.70;88.30
810;DHT22;387;48.772;9.186;2023-11-21T14:40:12;9.70;88.10
810;DHT22;387;48.772;9.186;2023-11-21T14:42:42;9.60;88.00
810;DHT22;387;48.772;9.186;2023-11-21T14:45:08;9.70;88.00
810;DHT22;387;48.772;9.186;2023-11-21T14:47:34;9.90;88.00
810;DHT22;387;48.772;9.186;2023-11-21T14:50:03;9.90;87.80
810;DHT22;387;48.772;9.186;2023-11-21T14:52:48;9.90;87.40
810;DHT22;387;48.772;9.186;2023-11-21T14:55:27;9.80;87.00
810;DHT22;387;48.772;9.186;2023-11-21T14:57:58;9.80;87.00
810;DHT22;387;48.772;9.186;2023-11-21T15:00:28;9.70;87.00
810;DHT22;387;48.772;9.186;2023-11-21T15:03:00;9.60;87.00
810;DHT22;387;48.772;9.186;2023-11-21T15:05:26;9.60;87.30
810;DHT22;387;48.772;9.186;2023-11-21T15:07:53;9.70;87.30
810;DHT22;387;48.772;9.186;2023-11-21T15:10:30;9.70;87.30
810;DHT22;387;48.772;9.186;2023-11-21T15:13:10;9.80;87.10
810;DHT22;387;48.772;9.186;2023-11-21T15:15:36;9.70;87.10
810;DHT22;387;48.772;9.186;2023-11-21T15:18:03;9.60;87.10
810;DHT22;387;48.772;9.186;2023-11-21T15:20:29;9.60;87.30
810;DHT22;387;48.772;9.186;2023-11-21T15:22:55;9.50;87.10
810;DHT22;387;48.772;9.186;2023-11-21T15:25:21;9.50;87.40
810;DHT22;387;48.772;9.186;2023-11-21T15:27:47;9.50;87.40
810;DHT22;387;48.772;9.186;2023-11-21T15:30:16;9.50;87.60
810;DHT22;387;48.772;9.186;2023-11-21T15:32:45;9.40;87.60
810;DHT22;387;48.772;9.186;2023-11-21T15:35:11;9.50;87.70
810;DHT22;387;48.772;9.186;2023-11-21T15:37:40;9.50;87.70
810;DHT22;387;48.772;9.186;2023-11-21T15:40:06;9.50;87.80
810;DHT22;387;48.772;9.186;2023-11-21T15:42:34;9.50;87.60
810;DHT22;387;48.772;9.186;2023-11-21T15:45:01;9.50;87.60
810;DHT22;387;48.772;9.186;2023-11-21T15:47:26;9.50;87.60
810;DHT22;387;48.772;9.186;2023-11-21T15:49:52;9.50;87.40
810;DHT22;387;48.772;9.186;2023-11-21T15:52:18;9.50;87.30
810;DHT22;387;48.772;9.186;2023-11-21T15:54:44;9.60;87.10
810;DHT22;387;48.772;9.186;2023-11-21T15:57:11;9.50;87.00
810;DHT22;387;48.772;9.186;2023-11-21T15:59:39;9.60;87.00
810;DHT22;387;48.772;9.186;2023-11-21T16:02:07;9.60;87.10
810;DHT22;387;48.772;9.186;2023-11-21T16:04:33;9.60;87.00
810;DHT22;387;48.772;9.186;2023-11-21T16:07:00;9.60;87.00
810;DHT22;387;48.772;9.186;2023-11-21T16:09:27;9.60;87.00
810;DHT22;387;48.772;9.186;2023-11-21T16:11:57;9.60;87.00
810;DHT22;387;48.772;9.186;2023-11-21T16:14:30;9.70;87.10
810;DHT22;387;48.772;9.186;2023-11-21T16:17:11;9.70;87.00
810;DHT22;387;48.772;9.186;2023-11-21T16:19:40;9.70;86.90
810;DHT22;387;48.772;9.186;2023-11-21T16:22:07;9.60;86.80
810;DHT22;387;48.772;9.186;2023-11-21T16:24:33;9.70;86.90
810;DHT22;387;48.772;9.186;2023-11-21T16:26:59;9.70;86.90
810;DHT22;387;48.772;9.186;2023-11-21T16:29:25;9.70;86.60
810;DHT22;387;48.772;9.186;2023-11-21T16:31:51;9.70;86.60
810;DHT22;387;48.772;9.186;2023-11-21T16:34:19;9.70;86.50
810;DHT22;387;48.772;9.186;2023-11-21T16:36:45;9.70;86.60
810;DHT22;387;48.772;9.186;2023-11-21T16:39:15;9.70;86.60
810;DHT22;387;48.772;9.186;2023-11-21T16:41:42;9.60;86.50
810;DHT22;387;48.772;9.186;2023-11-21T16:46:47;9.50;86.20
810;DHT22;387;48.772;9.186;2023-11-21T16:49:15;9.50;86.50
810;DHT22;387;48.772;9.186;2023-11-21T16:51:42;9.50;86.50
810;DHT22;387;48.772;9.186;2023-11-21T16:54:07;9.50;86.60
810;DHT22;387;48.772;9.186;2023-11-21T16:56:34;9.50;86.60
810;DHT22;387;48.772;9.186;2023-11-21T16:59:01;9.50;86.60
810;DHT22;387;48.772;9.186;2023-11-21T17:01:27;9.50;86.80
810;DHT22;387;48.772;9.186;2023-11-21T17:03:55;9.50;86.80
810;DHT22;387;48.772;9.186;2023-11-21T17:06:23;9.50;86.80
810;DHT22;387;48.772;9.186;2023-11-21T17:08:51;9.40;86.80